KTOI/TOI METAR and TAF weather

Enter ICAO airport designator
Station Type Date Time Source
KTOI METAR 2021/05/13 06:53 UTC NOAA

KTOI 130653Z AUTO 03010KT 10SM OVC008 13/10 A3021 RMK AO2 CIG 007V010 SLP227 T01330100


Station Type Date Time Source
KTOI Decoded METAR 2021/05/13 06:53 UTC NOAA

TROY MUNICIPAL AIRPORT, AL, United States (KTOI) 31-52N 086-01W 118M
May 13, 2021 - 02:53 AM EDT / 2021.05.13 0653 UTC
Wind: from the NNE (030 degrees) at 12 MPH (10 KT):0
Visibility: 10 mile(s):0
Sky conditions: overcast
Temperature: 55.9 F (13.3 C)
Dew Point: 50.0 F (10.0 C)
Relative Humidity: 80%
Pressure (altimeter): 30.21 in. Hg (1023 hPa)
ob: KTOI 130653Z AUTO 03010KT 10SM OVC008 13/10 A3021 RMK AO2 CIG 007V010 SLP227 T01330100
cycle: 7

Station Type Date Time Source
KTOI TAF 2021/05/13 06:30 UTC NOAA

TAF KTOI 130527Z 1306/1406 07009KT P6SM BKN007
FM131500 05007KT P6SM BKN015
FM131700 04007KT P6SM SCT035
FM140500 00000KT P6SM SKC

Example: see airport list